Taos Ski Valley, NM (87525)

12:13 PM MDT on July 30, 2016 (GMT -0600)
Canon | | Change Station

Elev 7001 ft 36.39 °N, 105.56 °W | Updated 4 minutes ago

Clear
Clear
90.5 °F
Feels Like 87 °F
N
5.8
Wind Variable Wind from WSW

Today
High -- | Low -- °F
--% Chance of Precip.
Yesterday
High -- | Low -- °F
Precip. -- in
Pressure 30.28 in
Visibility 10.0 miles
Clouds Clear
Heat Index 87 °F
Dew Point 48 °F
Humidity 23%
Rainfall 0.00 in
Snow Depth Not available.
6:07 AM 8:09 PM
Waning Crescent, 12% visible
METAR KSKX 301755Z AUTO 23008KT 190V250 10SM CLR 26/05 A3028 RMK AO1 10260 20080 57010
Pressure 30.28 in
Visibility 10.0 miles
Clouds Clear
Heat Index 87 °F
Dew Point 48 °F
Humidity 23%
Rainfall 0.00 in
Snow Depth Not available.
6:07 AM 8:09 PM
Waning Crescent, 12% visible
METAR KSKX 301755Z AUTO 23008KT 190V250 10SM CLR 26/05 A3028 RMK AO1 10260 20080 57010

10-Day Weather Forecast

Almanac

Astronomy

Jul. 30, 2016 Rise Set
Actual Time
Civil Twilight
Nautical Twilight
Astronomical Twilight
Moon
Length of Visible Light
Length of Day
Tomorrow will be .
, % of the Moon is Illuminated

Today's Extremes

State Highs State Lows

Community

WunderPhotos

Upload Photos

1,928,607 photos uploaded!

WunderBlog® & News

Nearby

Air Quality

  Air Quality AQ Index Pollutant
Not available.

Snow Depth

Station Depth Elevation

Earthquake Activity

City Distance Mag. Time & Date
Minimum magnitude displayed is 2.5.

Coastal Water Temperatures

Place Temperature

Stations

Nearby Weather Stations

Station Location Temp. Windchill Dew Point Humidity Wind Precip. Elev Updated Type
                   

Watches & Warnings

There are currently no watches in effect.